Time;durP1;ratioP1;P1;durP2;ratioP2;P2;SDS_P1;SDS_P2;PMS_P1;PMS_P2;Temp;Humidity;BMP_temperature;BMP_pressure;BME280_temperature;BME280_humidity;BME280_pressure;Samples;Min_cycle;Max_cycle;Signal;HPM_P1;HPM_P2
2024/02/25 00:00:26;;;;;;;135.38;127.10;;;7.80;99.90;;;;;;5071264;28;20434;-72
2024/02/25 00:02:52;;;;;;;132.88;123.90;;;7.80;99.90;;;;;;5071827;28;20039;-72
2024/02/25 00:05:18;;;;;;;153.70;144.10;;;7.90;99.90;;;;;;5071345;28;20535;-72
2024/02/25 00:07:45;;;;;;;143.57;134.32;;;7.90;99.90;;;;;;5071738;28;20028;-72
2024/02/25 00:10:11;;;;;;;159.80;150.70;;;7.90;99.90;;;;;;5070581;28;20044;-73
2024/02/25 00:12:37;;;;;;;127.20;119.38;;;7.90;99.90;;;;;;5071515;28;20045;-72
2024/02/25 00:15:04;;;;;;;138.75;130.32;;;7.90;99.90;;;;;;5071188;28;20489;-72
2024/02/25 00:17:30;;;;;;;119.15;111.75;;;8.00;99.90;;;;;;5070432;28;20414;-72
2024/02/25 00:19:56;;;;;;;161.65;150.90;;;8.00;99.90;;;;;;5070778;28;20032;-72
2024/02/25 00:22:24;;;;;;;155.45;146.30;;;8.00;99.90;;;;;;5071629;28;20364;-72
2024/02/25 00:24:50;;;;;;;159.68;149.40;;;7.90;99.90;;;;;;5070928;28;20037;-72
2024/02/25 00:27:16;;;;;;;156.43;146.48;;;7.90;99.90;;;;;;5068297;28;20044;-72
2024/02/25 00:29:42;;;;;;;151.63;142.63;;;7.90;99.90;;;;;;5071065;28;20048;-72
2024/02/25 00:32:08;;;;;;;148.73;140.18;;;8.00;99.90;;;;;;5069510;28;20467;-72
2024/02/25 00:34:34;;;;;;;165.07;154.60;;;8.00;99.90;;;;;;5069328;28;20043;-72
2024/02/25 00:37:00;;;;;;;153.57;144.38;;;8.00;99.90;;;;;;5070694;28;20031;-72
2024/02/25 00:39:26;;;;;;;149.32;139.70;;;8.00;99.90;;;;;;5068731;28;20055;-72
2024/02/25 00:41:52;;;;;;;140.38;131.60;;;8.00;99.90;;;;;;5068572;28;20394;-72
2024/02/25 00:44:19;;;;;;;135.77;127.80;;;8.00;99.90;;;;;;5070572;28;20036;-72
2024/02/25 00:46:46;;;;;;;170.70;160.35;;;7.90;99.90;;;;;;5067325;28;20051;-72
2024/02/25 00:49:12;;;;;;;134.18;125.90;;;7.90;99.90;;;;;;5070095;28;20040;-72
2024/02/25 00:51:39;;;;;;;130.63;122.25;;;7.90;99.90;;;;;;5070196;28;20020;-72
2024/02/25 00:54:05;;;;;;;154.23;144.27;;;7.90;99.90;;;;;;5070992;28;20049;-72
2024/02/25 00:56:31;;;;;;;126.45;118.30;;;7.90;99.90;;;;;;5068170;28;20031;-72
2024/02/25 00:58:57;;;;;;;151.95;142.25;;;7.90;99.90;;;;;;5070667;28;20462;-72
2024/02/25 01:01:24;;;;;;;146.52;137.18;;;7.90;99.90;;;;;;5069352;28;20032;-72
2024/02/25 01:03:50;;;;;;;123.68;115.95;;;7.90;99.90;;;;;;5068747;28;20075;-72
2024/02/25 01:06:16;;;;;;;150.85;141.13;;;7.80;99.90;;;;;;5067556;28;20040;-72
2024/02/25 01:08:42;;;;;;;135.63;127.18;;;7.90;99.90;;;;;;5069446;28;20367;-72
2024/02/25 01:11:08;;;;;;;138.02;128.80;;;7.90;99.90;;;;;;5070811;28;20041;-72
2024/02/25 01:13:35;;;;;;;153.80;144.20;;;7.90;99.90;;;;;;5071017;28;20049;-72
2024/02/25 01:16:02;;;;;;;130.35;122.45;;;8.00;99.90;;;;;;5068535;28;20055;-72
2024/02/25 01:18:31;;;;;;;111.88;105.20;;;8.00;99.90;;;;;;5071547;28;20406;-72
2024/02/25 01:20:58;;;;;;;136.27;127.63;;;8.10;99.90;;;;;;5071557;28;20036;-72
2024/02/25 01:23:24;;;;;;;135.75;127.22;;;8.10;99.90;;;;;;5072956;28;20036;-72
2024/02/25 01:25:50;;;;;;;134.90;126.50;;;8.00;99.90;;;;;;5070893;28;20025;-72
2024/02/25 01:28:16;;;;;;;121.97;114.25;;;8.00;99.90;;;;;;5052747;28;20052;-73
2024/02/25 01:30:45;;;;;;;128.20;120.22;;;8.00;99.90;;;;;;5069987;28;20033;-72
2024/02/25 01:33:11;;;;;;;106.47;99.97;;;8.00;99.90;;;;;;5068221;28;20040;-72
2024/02/25 01:35:37;;;;;;;108.40;101.88;;;7.90;99.90;;;;;;5070643;28;20390;-72
2024/02/25 01:38:03;;;;;;;122.72;114.97;;;8.00;99.90;;;;;;5071253;28;20029;-72
2024/02/25 01:40:29;;;;;;;120.05;112.80;;;8.00;99.90;;;;;;5069840;28;20071;-72
2024/02/25 01:43:09;;;;;;;127.80;119.90;;;8.00;99.90;;;;;;5070757;28;20037;-72
2024/02/25 01:45:35;;;;;;;124.25;116.57;;;7.90;99.90;;;;;;5069842;28;20040;-72
2024/02/25 01:48:04;;;;;;;144.18;135.23;;;7.90;99.90;;;;;;5070823;28;20024;-72
2024/02/25 01:50:31;;;;;;;127.53;120.25;;;7.90;99.90;;;;;;5069317;28;20055;-72
2024/02/25 01:52:58;;;;;;;134.07;125.55;;;8.00;99.90;;;;;;5069203;28;20041;-72
2024/02/25 01:55:24;;;;;;;126.40;119.07;;;8.10;99.90;;;;;;5068411;28;20226;-72
2024/02/25 01:57:51;;;;;;;120.13;113.07;;;8.00;99.90;;;;;;5065157;28;20032;-72
2024/02/25 02:00:17;;;;;;;120.97;113.72;;;8.10;99.90;;;;;;5061973;28;20025;-72
2024/02/25 02:02:43;;;;;;;115.18;107.93;;;8.00;99.90;;;;;;5067771;28;20025;-72
2024/02/25 02:05:09;;;;;;;124.80;116.80;;;8.00;99.90;;;;;;5070473;28;20028;-72
2024/02/25 02:07:38;;;;;;;115.60;108.65;;;8.00;99.90;;;;;;5070439;28;20441;-72
2024/02/25 02:10:11;;;;;;;125.60;118.15;;;8.00;99.90;;;;;;5070247;28;20048;-72
2024/02/25 02:12:41;;;;;;;127.60;120.07;;;8.10;99.90;;;;;;5069590;28;20406;-72
2024/02/25 02:15:08;;;;;;;110.68;103.63;;;8.10;99.90;;;;;;5069320;28;20037;-72
2024/02/25 02:17:34;;;;;;;118.82;112.05;;;8.10;99.90;;;;;;5069291;28;20461;-72
2024/02/25 02:20:00;;;;;;;122.72;115.32;;;8.10;99.90;;;;;;5070251;28;20487;-72
2024/02/25 02:22:27;;;;;;;123.60;116.32;;;8.00;99.90;;;;;;5066270;28;20037;-72
2024/02/25 02:24:53;;;;;;;121.43;113.88;;;8.00;99.90;;;;;;5069433;28;20037;-72
2024/02/25 02:27:19;;;;;;;130.43;122.78;;;8.00;99.90;;;;;;5063081;28;20036;-72
2024/02/25 02:29:45;;;;;;;137.35;128.85;;;8.10;99.90;;;;;;5069992;28;20045;-72
2024/02/25 02:32:11;;;;;;;120.82;113.93;;;8.00;99.90;;;;;;5055662;28;20040;-72
2024/02/25 02:34:38;;;;;;;132.20;124.28;;;8.00;99.90;;;;;;5051482;28;20021;-72
2024/02/25 02:37:04;;;;;;;120.28;112.65;;;7.90;99.90;;;;;;5067427;28;20032;-72
2024/02/25 02:39:31;;;;;;;132.57;124.38;;;7.90;99.90;;;;;;5068926;28;20035;-72
2024/02/25 02:41:57;;;;;;;125.38;117.88;;;8.00;99.90;;;;;;5065282;28;20028;-72
2024/02/25 02:44:23;;;;;;;126.13;117.93;;;8.00;99.90;;;;;;5064014;28;20040;-72
2024/02/25 02:46:49;;;;;;;115.18;108.38;;;8.00;99.90;;;;;;5064424;28;20051;-72
2024/02/25 02:49:15;;;;;;;117.90;110.75;;;8.00;99.90;;;;;;5088955;28;20044;-72
2024/02/25 02:51:41;;;;;;;126.60;119.35;;;8.00;99.90;;;;;;5063561;28;20186;-72
2024/02/25 02:54:07;;;;;;;144.80;136.52;;;8.10;99.90;;;;;;5056587;28;20033;-72
2024/02/25 02:56:33;;;;;;;156.02;147.20;;;8.00;99.90;;;;;;5060534;28;20680;-72
2024/02/25 02:58:59;;;;;;;156.48;147.77;;;8.00;99.90;;;;;;5063555;28;20028;-72
2024/02/25 03:01:26;;;;;;;158.07;148.98;;;8.00;99.90;;;;;;5061163;28;20505;-72
2024/02/25 03:03:52;;;;;;;174.73;164.45;;;8.10;99.90;;;;;;5058550;28;20028;-72
2024/02/25 03:06:18;;;;;;;165.57;155.95;;;8.10;99.90;;;;;;5065062;28;20024;-72
2024/02/25 03:08:44;;;;;;;139.38;131.15;;;8.10;99.90;;;;;;5067245;28;20056;-72
2024/02/25 03:11:10;;;;;;;166.15;156.48;;;8.20;99.90;;;;;;5068030;28;20048;-72
2024/02/25 03:13:37;;;;;;;159.98;150.25;;;8.20;99.90;;;;;;5057119;28;20515;-72
2024/02/25 03:16:03;;;;;;;172.10;162.05;;;8.20;99.90;;;;;;5058244;28;20025;-72
2024/02/25 03:18:29;;;;;;;158.32;149.32;;;8.20;99.90;;;;;;5050589;28;20047;-72
2024/02/25 03:20:55;;;;;;;196.55;184.68;;;8.20;99.90;;;;;;5062322;28;20589;-73
2024/02/25 03:23:21;;;;;;;178.13;167.55;;;8.10;99.90;;;;;;5057332;28;20041;-72
2024/02/25 03:25:48;;;;;;;201.93;189.68;;;8.20;99.90;;;;;;5064059;28;20028;-72
2024/02/25 03:28:14;;;;;;;191.50;179.90;;;8.10;99.90;;;;;;5067938;28;20044;-72
2024/02/25 03:30:40;;;;;;;163.20;153.13;;;8.10;99.90;;;;;;5066139;28;20052;-72
2024/02/25 03:33:06;;;;;;;161.93;152.50;;;8.10;99.90;;;;;;5073327;28;20425;-72
2024/02/25 03:35:32;;;;;;;170.65;160.73;;;8.20;99.90;;;;;;5070205;28;20036;-72
2024/02/25 03:38:00;;;;;;;164.55;154.75;;;8.20;99.90;;;;;;5072502;28;20033;-72
2024/02/25 03:40:26;;;;;;;117.70;110.85;;;8.10;99.90;;;;;;5073945;28;20043;-72
2024/02/25 03:42:52;;;;;;;123.05;116.07;;;8.10;99.90;;;;;;5065421;28;20041;-72
2024/02/25 03:45:18;;;;;;;122.47;115.22;;;8.10;99.90;;;;;;5072975;28;20025;-72
2024/02/25 03:47:45;;;;;;;126.53;119.05;;;8.10;99.90;;;;;;5073519;28;20033;-72
2024/02/25 03:50:11;;;;;;;128.35;120.45;;;8.10;99.90;;;;;;5062587;28;20037;-72
2024/02/25 03:52:38;;;;;;;126.15;118.78;;;8.20;99.90;;;;;;5073651;28;20039;-72
2024/02/25 03:55:06;;;;;;;142.10;133.98;;;8.20;99.90;;;;;;5055351;28;20041;-72
2024/02/25 03:57:32;;;;;;;124.40;116.85;;;8.20;99.90;;;;;;5073108;28;20040;-72
2024/02/25 03:59:58;;;;;;;136.02;127.85;;;8.20;99.90;;;;;;5055524;28;20033;-72
2024/02/25 04:02:25;;;;;;;137.98;130.00;;;8.20;99.90;;;;;;5072639;28;20052;-72
2024/02/25 04:04:51;;;;;;;154.27;144.95;;;8.10;99.90;;;;;;5071206;28;20044;-72
2024/02/25 04:07:17;;;;;;;142.98;134.13;;;8.20;99.90;;;;;;5061682;28;20529;-72
2024/02/25 04:09:43;;;;;;;136.18;128.18;;;8.20;99.90;;;;;;5058830;28;20040;-72
2024/02/25 04:12:09;;;;;;;161.93;151.85;;;8.20;99.90;;;;;;5072665;28;20055;-71
2024/02/25 04:14:35;;;;;;;137.15;129.38;;;8.30;99.90;;;;;;5059061;28;20040;-72
2024/02/25 04:17:02;;;;;;;145.25;136.23;;;8.20;99.90;;;;;;5073007;28;20035;-72
2024/02/25 04:19:28;;;;;;;205.73;192.65;;;8.20;99.90;;;;;;5080028;28;20043;-72
2024/02/25 04:21:54;;;;;;;152.15;142.75;;;8.20;99.90;;;;;;5078790;28;20113;-72
2024/02/25 04:24:20;;;;;;;196.90;184.73;;;8.20;99.90;;;;;;5054203;28;20033;-72
2024/02/25 04:26:47;;;;;;;181.20;169.50;;;8.20;99.90;;;;;;5055966;28;20032;-72
2024/02/25 04:29:13;;;;;;;160.30;150.50;;;8.30;99.90;;;;;;5067427;28;20041;-72
2024/02/25 04:31:45;;;;;;;189.35;177.70;;;8.30;99.90;;;;;;5065943;28;20501;-72
2024/02/25 04:34:12;;;;;;;185.65;174.25;;;8.30;99.90;;;;;;5070294;28;20064;-72
2024/02/25 04:36:39;;;;;;;180.40;169.05;;;8.30;99.90;;;;;;5070997;28;20036;-72
2024/02/25 04:39:05;;;;;;;182.13;170.73;;;8.30;99.90;;;;;;5077730;28;20037;-72
2024/02/25 04:41:31;;;;;;;185.40;174.10;;;8.20;99.90;;;;;;5072653;28;20052;-72
2024/02/25 04:43:57;;;;;;;209.68;196.60;;;8.30;99.90;;;;;;5062919;28;20375;-72
2024/02/25 04:46:24;;;;;;;181.50;169.88;;;8.30;99.90;;;;;;5055959;28;20040;-73
2024/02/25 04:48:50;;;;;;;187.48;175.75;;;8.30;99.90;;;;;;5073554;28;20450;-72
2024/02/25 04:51:16;;;;;;;147.20;138.35;;;8.30;99.90;;;;;;5071756;28;20032;-72
2024/02/25 04:53:42;;;;;;;139.13;130.73;;;8.30;99.90;;;;;;5067926;28;20044;-72
2024/02/25 04:56:08;;;;;;;167.38;157.50;;;8.30;99.90;;;;;;5065618;28;20037;-72
2024/02/25 04:58:35;;;;;;;174.38;163.55;;;8.30;99.90;;;;;;5070362;28;20039;-72
2024/02/25 05:01:01;;;;;;;155.35;145.80;;;8.30;99.90;;;;;;5074117;28;20032;-72
2024/02/25 05:03:27;;;;;;;145.88;136.48;;;8.30;99.90;;;;;;5069220;28;20029;-72
2024/02/25 05:05:53;;;;;;;175.85;165.07;;;8.20;99.90;;;;;;5070782;28;20495;-72
2024/02/25 05:08:19;;;;;;;169.23;158.88;;;8.20;99.90;;;;;;5069975;28;20059;-72
2024/02/25 05:10:45;;;;;;;145.15;136.20;;;8.20;99.90;;;;;;5071127;28;20403;-72
2024/02/25 05:13:11;;;;;;;145.30;136.18;;;8.20;99.90;;;;;;5071402;28;20056;-72
2024/02/25 05:15:38;;;;;;;166.55;156.35;;;8.20;99.90;;;;;;5067017;28;20048;-72
2024/02/25 05:18:04;;;;;;;149.18;140.52;;;8.20;99.90;;;;;;5059986;28;20395;-72
2024/02/25 05:20:30;;;;;;;158.40;148.02;;;8.20;99.90;;;;;;5063113;28;20040;-72
2024/02/25 05:22:56;;;;;;;123.50;116.07;;;8.20;99.90;;;;;;5069141;28;20036;-72
2024/02/25 05:25:22;;;;;;;227.27;131.85;;;8.10;99.90;;;;;;5053805;28;20033;-72
2024/02/25 05:27:48;;;;;;;138.70;130.27;;;8.20;99.90;;;;;;5067913;28;20029;-72
2024/02/25 05:30:14;;;;;;;182.00;133.18;;;8.20;99.90;;;;;;5070855;28;20041;-72
2024/02/25 05:32:40;;;;;;;127.30;119.45;;;8.20;99.90;;;;;;5070277;28;20033;-71
2024/02/25 05:35:07;;;;;;;143.23;123.00;;;8.20;99.90;;;;;;5066858;28;20036;-72
2024/02/25 05:37:33;;;;;;;109.53;101.15;;;8.10;99.90;;;;;;5075399;28;20036;-72
2024/02/25 05:39:59;;;;;;;135.80;127.05;;;8.10;99.90;;;;;;5039137;28;20059;-72
2024/02/25 05:42:26;;;;;;;150.35;132.05;;;8.10;99.90;;;;;;5061858;28;20040;-72
2024/02/25 05:44:53;;;;;;;148.73;138.75;;;8.10;99.90;;;;;;5061759;28;20032;-72
2024/02/25 05:47:20;;;;;;;117.57;110.80;;;8.10;99.90;;;;;;5058139;28;20020;-72
2024/02/25 05:49:46;;;;;;;121.50;114.47;;;8.10;99.90;;;;;;5054836;28;20040;-71
2024/02/25 05:52:12;;;;;;;113.85;105.47;;;8.10;99.90;;;;;;5068256;28;20550;-72
2024/02/25 05:54:38;;;;;;;108.03;101.68;;;8.10;99.90;;;;;;5059206;28;20040;-72
2024/02/25 05:57:04;;;;;;;122.05;114.57;;;8.10;99.90;;;;;;5067902;28;20024;-72
2024/02/25 05:59:31;;;;;;;129.95;122.30;;;8.20;99.90;;;;;;5060393;28;20028;-72
2024/02/25 06:01:57;;;;;;;123.25;115.85;;;8.20;99.90;;;;;;5068002;28;20036;-72
2024/02/25 06:04:23;;;;;;;164.60;150.68;;;8.20;99.90;;;;;;5060916;28;20032;-72
2024/02/25 06:06:53;;;;;;;149.93;141.27;;;8.20;99.90;;;;;;5057924;28;20028;-72
2024/02/25 06:09:19;;;;;;;115.68;109.05;;;8.20;99.90;;;;;;5072740;28;20029;-71
2024/02/25 06:11:47;;;;;;;117.20;105.82;;;8.10;99.90;;;;;;5070556;28;20055;-72
2024/02/25 06:14:13;;;;;;;94.72;89.43;;;8.10;99.90;;;;;;5063851;28;20378;-71
2024/02/25 06:16:39;;;;;;;99.57;93.45;;;8.00;99.90;;;;;;5061162;28;20590;-71
2024/02/25 06:19:06;;;;;;;97.63;92.13;;;8.00;99.90;;;;;;5063774;28;20059;-71
2024/02/25 06:21:32;;;;;;;105.75;100.05;;;8.00;99.90;;;;;;5063964;28;20084;-71
2024/02/25 06:23:58;;;;;;;100.25;94.38;;;8.00;99.90;;;;;;5060743;28;20032;-71
2024/02/25 06:26:24;;;;;;;94.13;89.10;;;7.90;99.90;;;;;;5062019;28;20502;-71
2024/02/25 06:28:51;;;;;;;102.85;97.13;;;7.90;99.90;;;;;;5062839;28;20039;-71
2024/02/25 06:31:17;;;;;;;75.68;71.38;;;8.00;99.90;;;;;;5063180;28;20052;-71
2024/02/25 06:33:43;;;;;;;86.18;81.15;;;7.90;99.90;;;;;;5062587;28;20481;-71
2024/02/25 06:36:18;;;;;;;98.38;90.90;;;7.90;99.90;;;;;;5064967;28;20111;-71
2024/02/25 06:38:44;;;;;;;109.65;103.28;;;8.00;99.90;;;;;;5062294;28;20402;-71
2024/02/25 06:41:21;;;;;;;110.75;104.10;;;7.90;99.90;;;;;;5066402;28;20028;-71
2024/02/25 06:43:47;;;;;;;103.07;97.30;;;7.90;99.90;;;;;;5063229;28;20028;-71
2024/02/25 06:46:13;;;;;;;83.82;79.32;;;7.90;99.90;;;;;;5060388;28;20486;-71
2024/02/25 06:48:39;;;;;;;151.90;92.28;;;7.90;99.90;;;;;;5064107;28;20055;-71
2024/02/25 06:51:05;;;;;;;90.45;85.07;;;8.00;99.90;;;;;;5062908;28;20045;-71
2024/02/25 06:53:33;;;;;;;81.78;76.75;;;7.90;99.90;;;;;;5064031;28;20036;-71
2024/02/25 06:56:00;;;;;;;89.68;84.45;;;7.90;99.90;;;;;;5064182;28;20406;-71
2024/02/25 06:58:26;;;;;;;116.10;109.35;;;7.90;99.90;;;;;;5064425;28;20028;-71
2024/02/25 07:00:52;;;;;;;110.88;104.38;;;7.90;99.90;;;;;;5063735;28;20041;-71
2024/02/25 07:03:18;;;;;;;118.68;111.82;;;7.90;99.90;;;;;;5064965;28;20044;-71
2024/02/25 07:05:44;;;;;;;108.20;101.68;;;7.90;99.90;;;;;;5062217;28;20028;-71
2024/02/25 07:08:10;;;;;;;107.00;100.93;;;7.90;99.90;;;;;;5068417;28;20055;-71
2024/02/25 07:10:36;;;;;;;113.72;107.57;;;7.90;99.90;;;;;;5063307;28;20047;-71
2024/02/25 07:13:03;;;;;;;134.70;126.82;;;7.90;99.90;;;;;;5060649;28;20067;-71
2024/02/25 07:15:29;;;;;;;112.60;106.20;;;7.90;99.90;;;;;;5067339;28;20436;-71
2024/02/25 07:17:55;;;;;;;120.22;112.93;;;7.90;99.90;;;;;;5063305;28;20024;-71
2024/02/25 07:20:21;;;;;;;140.80;132.40;;;7.90;99.90;;;;;;5064624;28;20037;-71
2024/02/25 07:22:47;;;;;;;102.82;96.32;;;7.90;99.90;;;;;;5065906;28;20032;-71
2024/02/25 07:25:14;;;;;;;136.77;129.02;;;7.90;99.90;;;;;;5067246;28;20028;-71
2024/02/25 07:27:40;;;;;;;116.05;108.68;;;7.90;99.90;;;;;;5069026;28;20482;-71
2024/02/25 07:30:07;;;;;;;132.95;125.47;;;7.90;99.90;;;;;;5062292;28;20240;-72
2024/02/25 07:32:33;;;;;;;115.93;109.53;;;7.90;99.90;;;;;;5065581;28;20506;-72
2024/02/25 07:34:59;;;;;;;159.63;150.32;;;7.90;99.90;;;;;;5064919;28;20025;-72
2024/02/25 07:37:28;;;;;;;116.10;109.32;;;7.90;99.90;;;;;;5070085;28;20029;-71
2024/02/25 07:39:54;;;;;;;132.45;124.45;;;7.90;99.90;;;;;;5062757;28;20045;-72
2024/02/25 07:42:20;;;;;;;90.78;85.30;;;7.90;99.90;;;;;;5068523;28;20032;-72
2024/02/25 07:44:47;;;;;;;120.95;112.95;;;7.90;99.90;;;;;;5068172;28;20025;-72
2024/02/25 07:47:13;;;;;;;159.38;149.40;;;7.90;99.90;;;;;;5068669;28;20033;-72
2024/02/25 07:49:39;;;;;;;95.05;89.50;;;7.90;99.90;;;;;;5063351;28;20033;-72
2024/02/25 07:52:05;;;;;;;137.57;129.32;;;7.90;99.90;;;;;;5065841;28;20036;-71
2024/02/25 07:54:31;;;;;;;163.57;153.25;;;7.90;99.90;;;;;;5067322;28;20029;-72
2024/02/25 07:56:57;;;;;;;134.93;127.20;;;7.90;99.90;;;;;;5062615;28;20360;-71
2024/02/25 07:59:23;;;;;;;113.60;106.72;;;7.90;99.90;;;;;;5068354;28;20036;-72
2024/02/25 08:01:49;;;;;;;115.80;108.30;;;7.90;99.90;;;;;;5066540;28;20472;-71
2024/02/25 08:04:15;;;;;;;108.70;102.32;;;7.90;99.90;;;;;;5080756;28;20044;-71
2024/02/25 08:06:41;;;;;;;90.55;84.82;;;7.90;99.90;;;;;;5067011;28;20058;-71
2024/02/25 08:09:07;;;;;;;150.88;141.38;;;8.00;99.90;;;;;;5064860;28;20032;-72
2024/02/25 08:11:34;;;;;;;98.53;92.65;;;8.00;99.90;;;;;;5064723;28;20048;-72
2024/02/25 08:14:00;;;;;;;95.38;89.90;;;7.90;99.90;;;;;;5071245;28;20037;-72
2024/02/25 08:16:31;;;;;;;117.60;110.65;;;7.90;99.90;;;;;;5081795;28;20044;-72
2024/02/25 08:18:57;;;;;;;88.97;83.93;;;8.00;99.90;;;;;;5083319;28;20024;-72
2024/02/25 08:21:23;;;;;;;123.25;115.88;;;8.10;99.90;;;;;;5081824;28;20037;-72
2024/02/25 08:23:49;;;;;;;114.60;108.13;;;8.00;99.90;;;;;;5073407;28;20029;-72
2024/02/25 08:26:15;;;;;;;74.22;69.80;;;8.00;99.90;;;;;;5071842;28;20027;-72
2024/02/25 08:28:42;;;;;;;102.68;96.82;;;8.00;99.90;;;;;;5064930;28;20021;-70
2024/02/25 08:31:08;;;;;;;191.68;179.68;;;7.90;99.90;;;;;;5058796;28;20059;-71
2024/02/25 08:33:35;;;;;;;198.95;185.82;;;7.90;99.90;;;;;;5059929;28;20025;-71
2024/02/25 08:36:01;;;;;;;132.80;125.28;;;7.90;99.90;;;;;;5067714;28;20031;-71
2024/02/25 08:38:28;;;;;;;106.07;100.40;;;7.90;99.90;;;;;;5058785;28;20024;-71
2024/02/25 08:40:54;;;;;;;142.65;133.95;;;7.90;99.90;;;;;;5058583;28;20040;-71
2024/02/25 08:43:20;;;;;;;135.25;127.25;;;7.90;99.90;;;;;;5057094;28;20025;-71
2024/02/25 08:45:46;;;;;;;117.63;110.32;;;8.00;99.90;;;;;;5061932;28;20502;-71
2024/02/25 08:48:12;;;;;;;96.13;90.43;;;7.90;99.90;;;;;;5053366;28;20032;-71
2024/02/25 08:50:38;;;;;;;119.85;112.65;;;8.00;99.90;;;;;;5065894;28;20032;-71
2024/02/25 08:53:04;;;;;;;127.57;120.28;;;8.10;99.90;;;;;;5070443;28;20359;-71
2024/02/25 08:55:30;;;;;;;133.30;125.50;;;8.10;99.90;;;;;;5070025;28;20025;-71
2024/02/25 08:57:56;;;;;;;131.00;123.38;;;8.10;99.90;;;;;;5069302;28;20059;-71
2024/02/25 09:00:23;;;;;;;101.38;95.65;;;8.10;99.90;;;;;;5063291;28;20085;-71
2024/02/25 09:02:49;;;;;;;114.47;108.10;;;8.10;99.90;;;;;;5061831;28;20032;-71
2024/02/25 09:05:15;;;;;;;132.00;124.30;;;8.10;99.90;;;;;;5067500;28;20025;-72
2024/02/25 09:07:42;;;;;;;116.72;109.85;;;8.10;99.90;;;;;;5064516;28;20041;-72
2024/02/25 09:10:13;;;;;;;130.57;123.35;;;8.10;99.90;;;;;;5058654;28;20036;-71
2024/02/25 09:12:39;;;;;;;133.13;125.70;;;8.10;99.90;;;;;;5070999;28;20398;-72
2024/02/25 09:15:06;;;;;;;107.38;101.25;;;8.10;99.90;;;;;;5068477;28;20047;-72
2024/02/25 09:17:32;;;;;;;96.20;91.00;;;8.10;99.90;;;;;;5070562;28;20029;-72
2024/02/25 09:19:58;;;;;;;99.45;93.88;;;8.20;99.90;;;;;;5066672;28;20029;-72
2024/02/25 09:22:24;;;;;;;115.35;109.28;;;8.20;99.90;;;;;;5054898;28;20025;-72
2024/02/25 09:24:50;;;;;;;110.55;104.28;;;8.20;99.90;;;;;;5065585;28;20040;-72
2024/02/25 09:27:16;;;;;;;125.15;118.05;;;8.20;99.90;;;;;;5062066;28;20070;-72
2024/02/25 09:29:42;;;;;;;111.05;104.65;;;8.30;99.90;;;;;;5068660;28;20044;-72
2024/02/25 09:32:08;;;;;;;129.98;122.70;;;8.30;99.90;;;;;;5052136;28;20045;-72
2024/02/25 09:34:38;;;;;;;136.07;128.20;;;8.30;99.90;;;;;;5065240;28;20028;-73
2024/02/25 09:37:04;;;;;;;121.28;114.60;;;8.30;99.90;;;;;;5068512;28;20043;-72
2024/02/25 09:39:30;;;;;;;102.22;96.82;;;8.30;99.90;;;;;;5070937;28;20036;-72
2024/02/25 09:41:56;;;;;;;96.78;91.40;;;8.30;99.90;;;;;;5065423;28;20024;-72
2024/02/25 09:44:24;;;;;;;117.35;110.93;;;8.30;99.90;;;;;;5070066;28;20394;-72
2024/02/25 09:46:54;;;;;;;112.13;106.05;;;8.40;99.90;;;;;;5071214;28;20045;-72
2024/02/25 09:49:23;;;;;;;107.18;101.40;;;8.40;99.90;;;;;;5071277;28;20044;-72
2024/02/25 09:51:49;;;;;;;96.70;91.50;;;8.40;99.90;;;;;;5056873;28;20048;-72
2024/02/25 09:54:16;;;;;;;124.90;117.80;;;8.40;99.90;;;;;;5061801;28;20485;-72
2024/02/25 09:56:49;;;;;;;80.03;75.68;;;8.40;99.90;;;;;;5068816;28;20036;-72
2024/02/25 09:59:16;;;;;;;113.28;107.30;;;8.40;99.90;;;;;;5062022;28;20025;-72
2024/02/25 10:01:45;;;;;;;116.18;109.65;;;8.40;99.90;;;;;;5068875;28;20036;-71
2024/02/25 10:04:12;;;;;;;108.40;102.40;;;8.40;99.90;;;;;;5072893;28;20028;-71
2024/02/25 10:06:38;;;;;;;95.88;90.85;;;8.40;99.90;;;;;;5070023;28;20043;-70
2024/02/25 10:09:06;;;;;;;137.38;129.55;;;8.50;99.90;;;;;;5070742;28;20025;-71
2024/02/25 10:11:33;;;;;;;120.65;114.07;;;8.40;99.90;;;;;;5059920;28;20044;-71
2024/02/25 10:13:59;;;;;;;99.65;94.35;;;8.40;99.90;;;;;;5053248;28;20044;-70
2024/02/25 10:16:25;;;;;;;98.00;92.70;;;8.40;99.90;;;;;;5060226;28;20025;-72
2024/02/25 10:18:52;;;;;;;89.75;84.88;;;8.40;99.90;;;;;;5071145;28;20467;-72
2024/02/25 10:21:18;;;;;;;103.20;97.68;;;8.50;99.90;;;;;;5058079;28;20055;-72
2024/02/25 10:23:44;;;;;;;100.22;94.97;;;8.50;99.90;;;;;;5070548;28;20035;-72
2024/02/25 10:26:18;;;;;;;104.53;98.75;;;8.50;99.90;;;;;;5070276;28;20378;-70
2024/02/25 10:28:44;;;;;;;98.38;93.28;;;8.60;99.90;;;;;;5075736;28;20024;-71
2024/02/25 10:31:14;;;;;;;127.45;120.43;;;8.50;99.90;;;;;;5070132;28;20075;-71
2024/02/25 10:33:41;;;;;;;100.38;94.65;;;8.50;99.90;;;;;;5058494;28;20040;-71
2024/02/25 10:36:13;;;;;;;94.22;89.20;;;8.60;99.90;;;;;;5073207;28;20032;-71
2024/02/25 10:38:46;;;;;;;95.40;90.22;;;8.60;99.90;;;;;;5074412;28;20024;-72
2024/02/25 10:41:14;;;;;;;132.45;125.10;;;8.60;99.90;;;;;;5073162;28;20040;-71
2024/02/25 10:43:40;;;;;;;110.35;104.47;;;8.60;99.90;;;;;;5066193;28;20459;-71
2024/02/25 10:46:32;;;;;;;128.13;120.78;;;8.60;99.90;;;;;;5068606;28;20043;-72
2024/02/25 10:48:58;;;;;;;111.60;105.10;;;8.60;99.90;;;;;;5064107;28;20040;-72
2024/02/25 10:51:25;;;;;;;107.78;101.85;;;8.70;99.90;;;;;;5064350;28;20387;-72
2024/02/25 10:53:51;;;;;;;124.90;118.13;;;8.70;99.90;;;;;;5074504;28;20040;-72
2024/02/25 10:56:18;;;;;;;104.88;99.22;;;8.70;99.90;;;;;;5072982;28;20036;-72
2024/02/25 10:58:48;;;;;;;108.00;102.00;;;8.70;99.90;;;;;;5085298;28;20032;-72
2024/02/25 11:01:16;;;;;;;101.22;95.70;;;8.70;99.90;;;;;;5074423;28;20498;-72
2024/02/25 11:03:42;;;;;;;124.00;117.05;;;8.70;99.90;;;;;;5057246;28;20044;-72
2024/02/25 11:06:11;;;;;;;101.72;96.15;;;8.60;99.90;;;;;;5073417;28;20032;-72
2024/02/25 11:08:41;;;;;;;148.10;139.63;;;8.70;99.90;;;;;;5056608;28;20035;-72
2024/02/25 11:11:08;;;;;;;103.10;97.40;;;8.70;99.90;;;;;;5073427;28;20044;-72
2024/02/25 11:13:34;;;;;;;114.82;108.55;;;8.70;99.90;;;;;;5072940;28;20282;-72
2024/02/25 11:16:04;;;;;;;116.82;110.45;;;8.70;99.90;;;;;;5074080;28;20041;-72
2024/02/25 11:18:30;;;;;;;108.32;102.47;;;8.70;99.90;;;;;;5073740;28;20041;-72
2024/02/25 11:21:07;;;;;;;109.25;103.45;;;8.80;99.90;;;;;;5080800;28;20031;-72
2024/02/25 11:23:47;;;;;;;156.90;146.30;;;8.80;99.90;;;;;;5074676;28;20036;-72
2024/02/25 11:26:35;;;;;;;126.15;118.75;;;8.80;99.90;;;;;;5073631;28;20035;-73
2024/02/25 11:29:22;;;;;;;111.82;105.55;;;8.80;99.90;;;;;;5074197;28;20028;-72
2024/02/25 11:31:49;;;;;;;90.30;85.40;;;8.90;99.90;;;;;;5064816;28;20037;-73
2024/02/25 11:34:31;;;;;;;91.07;86.07;;;8.80;99.90;;;;;;5073875;28;20029;-72
2024/02/25 11:36:58;;;;;;;120.57;113.80;;;8.90;99.90;;;;;;5064977;28;20029;-72
2024/02/25 11:39:28;;;;;;;134.85;127.30;;;8.90;99.90;;;;;;5054644;28;20045;-72
2024/02/25 11:41:56;;;;;;;130.48;122.97;;;8.90;99.90;;;;;;5079775;28;20033;-72
2024/02/25 11:44:26;;;;;;;106.88;100.97;;;9.00;99.90;;;;;;5072713;28;20410;-73
2024/02/25 11:46:59;;;;;;;123.70;116.60;;;9.00;99.90;;;;;;5071745;28;20035;-72
2024/02/25 11:49:25;;;;;;;113.68;107.43;;;9.00;99.90;;;;;;5052389;28;20406;-72
2024/02/25 11:51:52;;;;;;;104.43;98.80;;;9.00;99.90;;;;;;5077250;28;20036;-72
2024/02/25 11:54:21;;;;;;;132.65;124.75;;;9.10;99.90;;;;;;5071970;28;20486;-73
2024/02/25 11:56:51;;;;;;;85.35;80.82;;;9.10;99.90;;;;;;5072929;28;20032;-73
2024/02/25 11:59:20;;;;;;;105.88;99.57;;;9.20;99.90;;;;;;5056874;28;20494;-72
2024/02/25 12:01:50;;;;;;;150.00;140.73;;;9.20;99.90;;;;;;5076159;28;20043;-72
2024/02/25 12:04:17;;;;;;;112.88;106.60;;;9.50;99.90;;;;;;5074032;28;20043;-73
2024/02/25 12:06:43;;;;;;;106.22;100.40;;;9.70;99.90;;;;;;5071726;28;20044;-72
2024/02/25 12:09:12;;;;;;;141.85;133.75;;;9.70;99.90;;;;;;5071481;28;20039;-72
2024/02/25 12:11:38;;;;;;;174.90;164.90;;;9.80;99.90;;;;;;5074044;28;20052;-73
2024/02/25 12:14:17;;;;;;;183.73;173.27;;;9.90;99.90;;;;;;5073789;28;20033;-73
2024/02/25 12:16:44;;;;;;;149.68;140.88;;;9.90;99.90;;;;;;5071982;28;20041;-72
2024/02/25 12:19:11;;;;;;;151.35;142.43;;;9.90;99.90;;;;;;5071815;28;20032;-72